sensor_id;sensor_type;location;lat;lon;timestamp;pressure;altitude;pressure_sealevel;temperature;humidity
53506;BME280;39388;50.936;6.848;2022-10-12T00:00:43;101914.69;;;8.15;79.65
53506;BME280;39388;50.936;6.848;2022-10-12T00:03:15;101922.50;;;8.18;79.91
53506;BME280;39388;50.936;6.848;2022-10-12T00:05:46;101927.59;;;8.17;79.73
53506;BME280;39388;50.936;6.848;2022-10-12T00:08:16;101931.00;;;8.16;79.70
53506;BME280;39388;50.936;6.848;2022-10-12T00:10:47;101910.91;;;8.01;79.97
53506;BME280;39388;50.936;6.848;2022-10-12T00:13:17;101935.13;;;8.10;79.91
53506;BME280;39388;50.936;6.848;2022-10-12T00:15:48;101929.16;;;8.10;80.06
53506;BME280;39388;50.936;6.848;2022-10-12T00:18:19;101925.66;;;8.08;80.35
53506;BME280;39388;50.936;6.848;2022-10-12T00:21:08;101923.88;;;8.05;80.48
53506;BME280;39388;50.936;6.848;2022-10-12T00:23:39;101911.72;;;7.98;80.48
53506;BME280;39388;50.936;6.848;2022-10-12T00:26:13;101929.91;;;8.06;80.62
53506;BME280;39388;50.936;6.848;2022-10-12T00:28:44;101928.97;;;8.04;80.61
53506;BME280;39388;50.936;6.848;2022-10-12T00:31:18;101929.78;;;8.01;80.70
53506;BME280;39388;50.936;6.848;2022-10-12T00:33:49;101929.69;;;7.98;80.52
53506;BME280;39388;50.936;6.848;2022-10-12T00:38:51;101923.56;;;7.93;80.62
53506;BME280;39388;50.936;6.848;2022-10-12T00:41:25;101924.47;;;7.95;80.76
53506;BME280;39388;50.936;6.848;2022-10-12T00:43:56;101932.97;;;7.92;81.27
53506;BME280;39388;50.936;6.848;2022-10-12T00:49:13;101924.38;;;7.90;81.11
53506;BME280;39388;50.936;6.848;2022-10-12T00:51:49;101926.00;;;7.87;80.73
53506;BME280;39388;50.936;6.848;2022-10-12T00:54:25;101927.66;;;7.85;81.10
53506;BME280;39388;50.936;6.848;2022-10-12T00:56:58;101922.44;;;7.81;81.15
53506;BME280;39388;50.936;6.848;2022-10-12T00:59:39;101922.44;;;7.81;81.13
53506;BME280;39388;50.936;6.848;2022-10-12T01:02:12;101905.06;;;7.73;81.12
53506;BME280;39388;50.936;6.848;2022-10-12T01:04:43;101915.47;;;7.77;81.22
53506;BME280;39388;50.936;6.848;2022-10-12T01:07:13;101912.78;;;7.73;81.25
53506;BME280;39388;50.936;6.848;2022-10-12T01:09:44;101921.41;;;7.75;81.28
53506;BME280;39388;50.936;6.848;2022-10-12T01:12:15;101920.53;;;7.74;81.08
53506;BME280;39388;50.936;6.848;2022-10-12T01:14:46;101932.47;;;7.72;81.11
53506;BME280;39388;50.936;6.848;2022-10-12T01:23:16;101899.41;;;7.53;81.00
53506;BME280;39388;50.936;6.848;2022-10-12T01:31:46;101917.66;;;7.62;80.92
53506;BME280;39388;50.936;6.848;2022-10-12T01:34:31;101925.28;;;7.60;81.35
53506;BME280;39388;50.936;6.848;2022-10-12T01:37:23;101911.53;;;7.58;80.72
53506;BME280;39388;50.936;6.848;2022-10-12T01:39:59;101906.41;;;7.58;80.82
53506;BME280;39388;50.936;6.848;2022-10-12T01:42:38;101902.91;;;7.55;80.66
53506;BME280;39388;50.936;6.848;2022-10-12T01:45:15;101901.16;;;7.54;81.55
53506;BME280;39388;50.936;6.848;2022-10-12T01:47:49;101907.09;;;7.51;81.27
53506;BME280;39388;50.936;6.848;2022-10-12T01:50:26;101907.84;;;7.48;81.62
53506;BME280;39388;50.936;6.848;2022-10-12T01:53:17;101906.16;;;7.47;81.13
53506;BME280;39388;50.936;6.848;2022-10-12T01:56:07;101900.94;;;7.44;81.08
53506;BME280;39388;50.936;6.848;2022-10-12T01:58:47;101895.91;;;7.49;81.50
53506;BME280;39388;50.936;6.848;2022-10-12T02:01:30;101898.50;;;7.50;81.75
53506;BME280;39388;50.936;6.848;2022-10-12T02:04:10;101895.03;;;7.48;81.29
53506;BME280;39388;50.936;6.848;2022-10-12T02:06:49;101898.47;;;7.49;81.84
53506;BME280;39388;50.936;6.848;2022-10-12T02:09:25;101890.59;;;7.43;81.34
53506;BME280;39388;50.936;6.848;2022-10-12T02:12:03;101898.38;;;7.44;81.62
53506;BME280;39388;50.936;6.848;2022-10-12T02:14:42;101862.00;;;7.30;82.05
53506;BME280;39388;50.936;6.848;2022-10-12T02:17:16;101897.41;;;7.41;81.88
53506;BME280;39388;50.936;6.848;2022-10-12T02:19:56;101887.97;;;7.40;82.21
53506;BME280;39388;50.936;6.848;2022-10-12T02:22:30;101877.41;;;7.30;81.60
53506;BME280;39388;50.936;6.848;2022-10-12T02:25:06;101878.34;;;7.34;81.89
53506;BME280;39388;50.936;6.848;2022-10-12T02:27:42;101882.66;;;7.35;81.80
53506;BME280;39388;50.936;6.848;2022-10-12T02:30:13;101880.88;;;7.31;82.28
53506;BME280;39388;50.936;6.848;2022-10-12T02:35:32;101871.22;;;7.22;82.21
53506;BME280;39388;50.936;6.848;2022-10-12T02:38:27;101882.53;;;7.30;82.09
53506;BME280;39388;50.936;6.848;2022-10-12T02:41:11;101839.19;;;7.08;81.91
53506;BME280;39388;50.936;6.848;2022-10-12T02:43:56;101854.78;;;7.15;82.26
53506;BME280;39388;50.936;6.848;2022-10-12T02:46:30;101854.88;;;7.18;82.67
53506;BME280;39388;50.936;6.848;2022-10-12T02:49:03;101862.63;;;7.21;82.52
53506;BME280;39388;50.936;6.848;2022-10-12T02:51:34;101858.31;;;7.20;82.31
53506;BME280;39388;50.936;6.848;2022-10-12T02:54:05;101843.69;;;7.16;81.88
53506;BME280;39388;50.936;6.848;2022-10-12T02:56:42;101848.94;;;7.21;82.32
53506;BME280;39388;50.936;6.848;2022-10-12T02:59:14;101822.19;;;7.11;82.16
53506;BME280;39388;50.936;6.848;2022-10-12T03:01:45;101829.06;;;7.14;82.65
53506;BME280;39388;50.936;6.848;2022-10-12T03:04:15;101830.78;;;7.13;82.76
53506;BME280;39388;50.936;6.848;2022-10-12T03:06:46;101825.53;;;7.09;82.21
53506;BME280;39388;50.936;6.848;2022-10-12T03:09:16;101825.66;;;7.13;82.13
53506;BME280;39388;50.936;6.848;2022-10-12T03:11:46;101831.63;;;7.14;82.54
53506;BME280;39388;50.936;6.848;2022-10-12T03:14:17;101830.78;;;7.13;82.43
53506;BME280;39388;50.936;6.848;2022-10-12T03:16:47;101831.53;;;7.09;81.90
53506;BME280;39388;50.936;6.848;2022-10-12T03:19:18;101820.41;;;7.09;82.17
53506;BME280;39388;50.936;6.848;2022-10-12T03:21:48;101831.59;;;7.12;82.21
53506;BME280;39388;50.936;6.848;2022-10-12T03:24:18;101830.75;;;7.12;83.01
53506;BME280;39388;50.936;6.848;2022-10-12T03:26:49;101807.31;;;6.99;82.73
53506;BME280;39388;50.936;6.848;2022-10-12T03:29:19;101828.13;;;7.10;82.32
53506;BME280;39388;50.936;6.848;2022-10-12T03:31:50;101825.66;;;7.13;82.49
53506;BME280;39388;50.936;6.848;2022-10-12T03:34:20;101823.91;;;7.12;82.38
53506;BME280;39388;50.936;6.848;2022-10-12T03:36:50;101830.81;;;7.15;82.84
53506;BME280;39388;50.936;6.848;2022-10-12T03:39:21;101658.94;;;6.16;82.30
53506;BME280;39388;50.936;6.848;2022-10-12T03:41:51;101685.91;;;6.33;82.77
53506;BME280;39388;50.936;6.848;2022-10-12T03:44:21;101758.84;;;6.77;83.08
53506;BME280;39388;50.936;6.848;2022-10-12T03:46:52;101695.50;;;6.40;83.12
53506;BME280;39388;50.936;6.848;2022-10-12T03:49:22;101681.44;;;6.26;83.08
53506;BME280;39388;50.936;6.848;2022-10-12T03:51:59;101619.88;;;5.92;82.82
53506;BME280;39388;50.936;6.848;2022-10-12T03:54:30;101704.88;;;6.40;83.07
53506;BME280;39388;50.936;6.848;2022-10-12T03:57:02;101699.75;;;6.40;83.05
53506;BME280;39388;50.936;6.848;2022-10-12T03:59:33;101824.72;;;7.10;83.28
53506;BME280;39388;50.936;6.848;2022-10-12T04:02:03;101665.75;;;6.15;83.06
53506;BME280;39388;50.936;6.848;2022-10-12T04:04:34;101771.66;;;6.77;83.31
53506;BME280;39388;50.936;6.848;2022-10-12T04:10:07;101823.47;;;6.95;83.16
53506;BME280;39388;50.936;6.848;2022-10-12T04:12:37;101636.72;;;5.84;83.08
53506;BME280;39388;50.936;6.848;2022-10-12T04:15:08;101627.88;;;5.74;83.14
53506;BME280;39388;50.936;6.848;2022-10-12T04:17:45;101687.00;;;6.12;82.96
53506;BME280;39388;50.936;6.848;2022-10-12T04:20:18;101629.63;;;5.75;82.92
53506;BME280;39388;50.936;6.848;2022-10-12T04:23:20;101656.47;;;5.88;83.01
53506;BME280;39388;50.936;6.848;2022-10-12T04:28:33;101830.19;;;6.91;83.49
53506;BME280;39388;50.936;6.848;2022-10-12T04:31:04;101827.66;;;6.93;82.97
53506;BME280;39388;50.936;6.848;2022-10-12T04:33:34;101824.97;;;6.88;83.27
53506;BME280;39388;50.936;6.848;2022-10-12T04:36:05;101822.34;;;6.87;83.62
53506;BME280;39388;50.936;6.848;2022-10-12T04:38:35;101819.63;;;6.81;83.42
53506;BME280;39388;50.936;6.848;2022-10-12T04:41:05;101826.63;;;6.86;83.01
53506;BME280;39388;50.936;6.848;2022-10-12T04:43:36;101819.75;;;6.85;83.65
53506;BME280;39388;50.936;6.848;2022-10-12T04:46:06;101812.78;;;6.80;83.88
53506;BME280;39388;50.936;6.848;2022-10-12T04:48:37;101821.50;;;6.86;83.39
53506;BME280;39388;50.936;6.848;2022-10-12T04:51:07;101805.94;;;6.80;83.12
53506;BME280;39388;50.936;6.848;2022-10-12T04:53:38;101817.19;;;6.85;83.30
53506;BME280;39388;50.936;6.848;2022-10-12T04:56:09;101822.44;;;6.90;83.37
53506;BME280;39388;50.936;6.848;2022-10-12T04:58:39;101817.28;;;6.88;83.54
53506;BME280;39388;50.936;6.848;2022-10-12T05:01:10;101810.31;;;6.83;83.33
53506;BME280;39388;50.936;6.848;2022-10-12T05:03:40;101817.28;;;6.88;83.48
53506;BME280;39388;50.936;6.848;2022-10-12T05:06:10;101805.19;;;6.83;83.78
53506;BME280;39388;50.936;6.848;2022-10-12T05:08:41;101805.09;;;6.81;83.28
53506;BME280;39388;50.936;6.848;2022-10-12T05:11:11;101799.81;;;6.75;83.68
53506;BME280;39388;50.936;6.848;2022-10-12T05:13:41;101806.88;;;6.84;83.64
53506;BME280;39388;50.936;6.848;2022-10-12T05:16:12;101806.00;;;6.82;83.56
53506;BME280;39388;50.936;6.848;2022-10-12T05:18:42;101799.88;;;6.78;83.43
53506;BME280;39388;50.936;6.848;2022-10-12T05:21:12;101797.38;;;6.80;83.87
53506;BME280;39388;50.936;6.848;2022-10-12T05:23:43;101793.94;;;6.79;83.81
53506;BME280;39388;50.936;6.848;2022-10-12T05:26:13;101793.03;;;6.77;83.72
53506;BME280;39388;50.936;6.848;2022-10-12T05:28:44;101796.44;;;6.76;84.22
53506;BME280;39388;50.936;6.848;2022-10-12T05:31:14;101805.09;;;6.80;83.88
53506;BME280;39388;50.936;6.848;2022-10-12T05:33:44;101808.41;;;6.77;84.31
53506;BME280;39388;50.936;6.848;2022-10-12T05:36:15;101801.56;;;6.76;84.22
53506;BME280;39388;50.936;6.848;2022-10-12T05:38:45;101794.50;;;6.69;84.15
53506;BME280;39388;50.936;6.848;2022-10-12T05:41:15;101799.75;;;6.72;83.70
53506;BME280;39388;50.936;6.848;2022-10-12T05:43:46;101798.78;;;6.68;84.26
53506;BME280;39388;50.936;6.848;2022-10-12T05:46:16;101792.56;;;6.60;84.16
53506;BME280;39388;50.936;6.848;2022-10-12T05:48:47;101808.06;;;6.65;84.11
53506;BME280;39388;50.936;6.848;2022-10-12T05:51:17;101807.19;;;6.64;84.31
53506;BME280;39388;50.936;6.848;2022-10-12T05:53:47;101808.88;;;6.64;83.97
53506;BME280;39388;50.936;6.848;2022-10-12T05:56:18;101809.56;;;6.58;83.75
53506;BME280;39388;50.936;6.848;2022-10-12T05:58:48;101812.94;;;6.55;83.92
53506;BME280;39388;50.936;6.848;2022-10-12T06:01:19;101816.44;;;6.59;84.00
53506;BME280;39388;50.936;6.848;2022-10-12T06:03:49;101821.53;;;6.57;84.61
53506;BME280;39388;50.936;6.848;2022-10-12T06:06:20;101806.03;;;6.53;83.85
53506;BME280;39388;50.936;6.848;2022-10-12T06:08:50;101816.34;;;6.56;83.94
53506;BME280;39388;50.936;6.848;2022-10-12T06:11:21;101815.38;;;6.52;83.49
53506;BME280;39388;50.936;6.848;2022-10-12T06:13:51;101828.41;;;6.58;83.99
53506;BME280;39388;50.936;6.848;2022-10-12T06:16:23;101825.84;;;6.58;83.95
53506;BME280;39388;50.936;6.848;2022-10-12T06:18:53;101819.81;;;6.58;83.85
53506;BME280;39388;50.936;6.848;2022-10-12T06:21:24;101812.94;;;6.55;83.50
53506;BME280;39388;50.936;6.848;2022-10-12T06:23:54;101812.97;;;6.57;83.93
53506;BME280;39388;50.936;6.848;2022-10-12T06:26:24;101821.53;;;6.57;84.03
53506;BME280;39388;50.936;6.848;2022-10-12T06:28:55;101820.75;;;6.60;83.83
53506;BME280;39388;50.936;6.848;2022-10-12T06:31:27;101819.06;;;6.60;84.08
53506;BME280;39388;50.936;6.848;2022-10-12T06:33:57;101819.91;;;6.61;83.60
53506;BME280;39388;50.936;6.848;2022-10-12T06:36:28;101797.41;;;6.51;84.19
53506;BME280;39388;50.936;6.848;2022-10-12T06:38:58;101815.75;;;6.65;83.71
53506;BME280;39388;50.936;6.848;2022-10-12T06:41:28;101814.28;;;6.73;84.41
53506;BME280;39388;50.936;6.848;2022-10-12T06:43:59;101816.06;;;6.75;84.01
53506;BME280;39388;50.936;6.848;2022-10-12T06:46:29;101812.81;;;6.81;84.39
53506;BME280;39388;50.936;6.848;2022-10-12T06:48:59;101817.22;;;6.87;83.72
53506;BME280;39388;50.936;6.848;2022-10-12T06:51:30;101821.59;;;6.89;84.29
53506;BME280;39388;50.936;6.848;2022-10-12T06:54:00;101815.69;;;6.92;83.86
53506;BME280;39388;50.936;6.848;2022-10-12T06:56:31;101814.03;;;6.94;84.19
53506;BME280;39388;50.936;6.848;2022-10-12T06:59:01;101821.81;;;6.97;83.85
53506;BME280;39388;50.936;6.848;2022-10-12T07:01:31;101822.66;;;6.98;84.22
53506;BME280;39388;50.936;6.848;2022-10-12T07:04:02;101820.22;;;7.02;84.11
53506;BME280;39388;50.936;6.848;2022-10-12T07:06:32;101808.28;;;7.03;83.95
53506;BME280;39388;50.936;6.848;2022-10-12T07:09:03;101817.97;;;7.13;83.88
53506;BME280;39388;50.936;6.848;2022-10-12T07:11:33;101809.38;;;7.13;84.17
53506;BME280;39388;50.936;6.848;2022-10-12T07:14:03;101818.09;;;7.19;83.82
53506;BME280;39388;50.936;6.848;2022-10-12T07:16:34;101827.03;;;7.34;83.74
53506;BME280;39388;50.936;6.848;2022-10-12T07:19:04;101829.31;;;7.89;83.12
53506;BME280;39388;50.936;6.848;2022-10-12T07:21:34;101827.34;;;8.53;80.99
53506;BME280;39388;50.936;6.848;2022-10-12T07:24:05;101822.81;;;8.84;79.45
53506;BME280;39388;50.936;6.848;2022-10-12T07:26:35;101822.81;;;8.84;78.75
53506;BME280;39388;50.936;6.848;2022-10-12T07:29:06;101828.69;;;8.76;78.81
53506;BME280;39388;50.936;6.848;2022-10-12T07:31:36;101821.38;;;8.54;79.65
53506;BME280;39388;50.936;6.848;2022-10-12T07:34:07;101833.09;;;8.41;80.35
53506;BME280;39388;50.936;6.848;2022-10-12T07:36:38;101836.28;;;8.31;80.66
53506;BME280;39388;50.936;6.848;2022-10-12T07:39:09;101833.66;;;8.28;81.10
53506;BME280;39388;50.936;6.848;2022-10-12T07:41:40;101830.97;;;8.23;81.44
53506;BME280;39388;50.936;6.848;2022-10-12T07:44:11;101830.16;;;8.24;81.65
53506;BME280;39388;50.936;6.848;2022-10-12T07:46:41;101824.19;;;8.27;81.60
53506;BME280;39388;50.936;6.848;2022-10-12T07:49:13;101825.22;;;8.35;81.60
53506;BME280;39388;50.936;6.848;2022-10-12T07:51:44;101823.56;;;8.37;81.49
53506;BME280;39388;50.936;6.848;2022-10-12T07:54:15;101816.00;;;8.43;81.37
53506;BME280;39388;50.936;6.848;2022-10-12T07:56:45;101817.66;;;8.40;81.15
53506;BME280;39388;50.936;6.848;2022-10-12T07:59:16;101819.47;;;8.46;81.52
53506;BME280;39388;50.936;6.848;2022-10-12T08:01:46;101817.94;;;8.54;81.54
53506;BME280;39388;50.936;6.848;2022-10-12T08:04:17;101818.09;;;8.62;81.31
53506;BME280;39388;50.936;6.848;2022-10-12T08:06:47;101808.72;;;8.64;80.83
53506;BME280;39388;50.936;6.848;2022-10-12T08:09:17;101814.91;;;8.73;81.16
53506;BME280;39388;50.936;6.848;2022-10-12T08:11:48;101819.31;;;8.81;81.46
53506;BME280;39388;50.936;6.848;2022-10-12T08:14:18;101819.47;;;8.87;81.17
53506;BME280;39388;50.936;6.848;2022-10-12T08:16:48;101822.22;;;8.96;80.94
53506;BME280;39388;50.936;6.848;2022-10-12T08:19:19;101825.81;;;9.04;81.14
53506;BME280;39388;50.936;6.848;2022-10-12T08:21:49;101826.97;;;9.22;81.34
53506;BME280;39388;50.936;6.848;2022-10-12T08:24:20;101823.09;;;9.44;80.74
53506;BME280;39388;50.936;6.848;2022-10-12T08:26:50;101828.31;;;9.47;80.40
53506;BME280;39388;50.936;6.848;2022-10-12T08:29:20;101823.13;;;9.46;80.78
53506;BME280;39388;50.936;6.848;2022-10-12T08:31:51;101820.56;;;9.46;80.83
53506;BME280;39388;50.936;6.848;2022-10-12T08:34:23;101818.97;;;9.53;80.80
53506;BME280;39388;50.936;6.848;2022-10-12T08:36:54;101815.69;;;9.61;80.91
53506;BME280;39388;50.936;6.848;2022-10-12T08:39:25;101816.66;;;9.71;80.86
53506;BME280;39388;50.936;6.848;2022-10-12T08:45:08;101813.38;;;9.78;80.92
53506;BME280;39388;50.936;6.848;2022-10-12T08:47:52;101803.13;;;9.81;80.96
53506;BME280;39388;50.936;6.848;2022-10-12T08:50:38;101811.84;;;9.88;80.77
53506;BME280;39388;50.936;6.848;2022-10-12T08:53:17;101796.31;;;9.87;80.70
53506;BME280;39388;50.936;6.848;2022-10-12T08:55:49;101805.97;;;9.99;80.47
53506;BME280;39388;50.936;6.848;2022-10-12T08:58:31;101808.69;;;10.08;80.92
53506;BME280;39388;50.936;6.848;2022-10-12T09:06:52;101810.53;;;10.17;80.31
53506;BME280;39388;50.936;6.848;2022-10-12T09:14:57;101792.81;;;10.40;80.24
53506;BME280;39388;50.936;6.848;2022-10-12T09:17:38;101797.28;;;10.52;80.04
53506;BME280;39388;50.936;6.848;2022-10-12T09:23:16;101801.88;;;10.78;79.52
53506;BME280;39388;50.936;6.848;2022-10-12T09:25:51;101801.97;;;10.87;79.24
53506;BME280;39388;50.936;6.848;2022-10-12T09:28:32;101802.16;;;11.01;79.38
53506;BME280;39388;50.936;6.848;2022-10-12T09:31:15;101802.31;;;11.16;78.87
53506;BME280;39388;50.936;6.848;2022-10-12T09:33:51;101809.34;;;11.36;78.94
53506;BME280;39388;50.936;6.848;2022-10-12T09:36:27;101798.31;;;11.51;78.20
53506;BME280;39388;50.936;6.848;2022-10-12T09:38:59;101793.19;;;11.56;77.21
53506;BME280;39388;50.936;6.848;2022-10-12T09:41:34;101795.00;;;11.64;77.01
53506;BME280;39388;50.936;6.848;2022-10-12T09:44:05;101806.22;;;11.73;76.71
53506;BME280;39388;50.936;6.848;2022-10-12T09:46:54;101809.81;;;11.84;76.42
53506;BME280;39388;50.936;6.848;2022-10-12T09:49:41;101812.50;;;11.97;76.39
53506;BME280;39388;50.936;6.848;2022-10-12T09:52:13;101817.72;;;12.04;75.83
53506;BME280;39388;50.936;6.848;2022-10-12T09:54:59;101810.88;;;12.11;75.28
53506;BME280;39388;50.936;6.848;2022-10-12T09:57:39;101809.19;;;12.22;75.30
53506;BME280;39388;50.936;6.848;2022-10-12T10:02:53;101802.41;;;12.46;74.87
53506;BME280;39388;50.936;6.848;2022-10-12T10:05:34;101792.13;;;12.59;75.09
53506;BME280;39388;50.936;6.848;2022-10-12T10:08:18;101792.16;;;12.71;74.49
53506;BME280;39388;50.936;6.848;2022-10-12T10:10:50;101787.88;;;12.81;74.31
53506;BME280;39388;50.936;6.848;2022-10-12T10:13:25;101795.69;;;12.96;74.34
53506;BME280;39388;50.936;6.848;2022-10-12T10:16:04;101792.28;;;13.08;73.92
53506;BME280;39388;50.936;6.848;2022-10-12T10:21:08;101798.38;;;13.26;73.13
53506;BME280;39388;50.936;6.848;2022-10-12T10:26:21;101794.03;;;13.34;73.01
53506;BME280;39388;50.936;6.848;2022-10-12T10:29:14;101801.81;;;13.34;72.99
53506;BME280;39388;50.936;6.848;2022-10-12T10:31:44;101791.47;;;13.37;72.69
53506;BME280;39388;50.936;6.848;2022-10-12T10:36:52;101797.53;;;13.44;72.73
53506;BME280;39388;50.936;6.848;2022-10-12T10:39:27;101798.41;;;13.54;72.58
53506;BME280;39388;50.936;6.848;2022-10-12T10:42:30;101799.28;;;13.70;72.09
53506;BME280;39388;50.936;6.848;2022-10-12T10:45:06;101798.41;;;13.77;71.60
53506;BME280;39388;50.936;6.848;2022-10-12T10:47:42;101788.03;;;13.83;71.26
53506;BME280;39388;50.936;6.848;2022-10-12T10:50:28;101788.88;;;13.98;71.10
53506;BME280;39388;50.936;6.848;2022-10-12T10:53:04;101788.84;;;14.10;71.28
53506;BME280;39388;50.936;6.848;2022-10-12T10:55:49;101792.25;;;14.24;70.23
53506;BME280;39388;50.936;6.848;2022-10-12T10:58:47;101793.09;;;14.28;70.00
53506;BME280;39388;50.936;6.848;2022-10-12T11:04:12;101785.31;;;14.37;69.73
53506;BME280;39388;50.936;6.848;2022-10-12T11:06:58;101767.13;;;14.45;69.73
53506;BME280;39388;50.936;6.848;2022-10-12T11:09:41;101781.75;;;14.63;68.51
53506;BME280;39388;50.936;6.848;2022-10-12T11:12:20;101766.16;;;14.63;68.32
53506;BME280;39388;50.936;6.848;2022-10-12T11:14:57;101767.88;;;14.66;68.25
53506;BME280;39388;50.936;6.848;2022-10-12T11:17:33;101769.59;;;14.70;68.14
53506;BME280;39388;50.936;6.848;2022-10-12T11:23:04;101768.69;;;14.76;67.74
53506;BME280;39388;50.936;6.848;2022-10-12T11:25:54;101755.72;;;14.76;67.89
53506;BME280;39388;50.936;6.848;2022-10-12T11:28:31;101754.00;;;14.73;67.95
53506;BME280;39388;50.936;6.848;2022-10-12T11:31:04;101760.06;;;14.72;67.96
53506;BME280;39388;50.936;6.848;2022-10-12T11:33:38;101751.41;;;14.72;68.05
53506;BME280;39388;50.936;6.848;2022-10-12T11:36:16;101749.69;;;14.66;68.13
53506;BME280;39388;50.936;6.848;2022-10-12T11:38:56;101738.53;;;14.54;68.72
53506;BME280;39388;50.936;6.848;2022-10-12T11:41:40;101735.06;;;14.49;68.69
53506;BME280;39388;50.936;6.848;2022-10-12T11:44:22;101728.19;;;14.47;68.85
53506;BME280;39388;50.936;6.848;2022-10-12T11:47:02;101735.09;;;14.51;68.86
53506;BME280;39388;50.936;6.848;2022-10-12T11:52:11;101717.78;;;14.50;68.82
53506;BME280;39388;50.936;6.848;2022-10-12T11:54:56;101718.63;;;14.55;68.78
53506;BME280;39388;50.936;6.848;2022-10-12T11:57:33;101718.56;;;14.66;68.57
53506;BME280;39388;50.936;6.848;2022-10-12T12:02:54;101708.94;;;14.88;67.81
53506;BME280;39388;50.936;6.848;2022-10-12T12:05:30;101707.13;;;15.01;67.41
53506;BME280;39388;50.936;6.848;2022-10-12T12:08:01;101698.38;;;15.13;67.22
53506;BME280;39388;50.936;6.848;2022-10-12T12:18:23;101696.41;;;15.38;66.32
53506;BME280;39388;50.936;6.848;2022-10-12T12:21:06;101685.16;;;15.41;66.16
53506;BME280;39388;50.936;6.848;2022-10-12T12:23:39;101685.09;;;15.45;66.15
53506;BME280;39388;50.936;6.848;2022-10-12T12:26:16;101682.47;;;15.47;66.20
53506;BME280;39388;50.936;6.848;2022-10-12T12:29:27;101685.03;;;15.52;66.23
53506;BME280;39388;50.936;6.848;2022-10-12T12:31:57;101671.09;;;15.57;66.07
53506;BME280;39388;50.936;6.848;2022-10-12T12:34:29;101679.66;;;15.67;66.02
53506;BME280;39388;50.936;6.848;2022-10-12T12:37:10;101674.38;;;15.76;65.72
53506;BME280;39388;50.936;6.848;2022-10-12T12:39:42;101674.34;;;15.78;65.74
53506;BME280;39388;50.936;6.848;2022-10-12T12:42:21;101670.00;;;15.79;65.64
53506;BME280;39388;50.936;6.848;2022-10-12T12:44:52;101670.91;;;15.78;65.53
53506;BME280;39388;50.936;6.848;2022-10-12T12:47:36;101656.19;;;15.75;65.59
53506;BME280;39388;50.936;6.848;2022-10-12T12:53:26;101662.97;;;15.88;66.08
53506;BME280;39388;50.936;6.848;2022-10-12T12:56:04;101648.91;;;16.02;65.87
53506;BME280;39388;50.936;6.848;2022-10-12T13:01:42;101642.44;;;16.35;65.05
53506;BME280;39388;50.936;6.848;2022-10-12T13:07:30;101643.22;;;16.42;65.17
53506;BME280;39388;50.936;6.848;2022-10-12T13:10:36;101631.94;;;16.42;65.38
53506;BME280;39388;50.936;6.848;2022-10-12T13:21:24;101632.75;;;16.47;64.98
53506;BME280;39388;50.936;6.848;2022-10-12T13:26:44;101625.59;;;16.60;64.61
53506;BME280;39388;50.936;6.848;2022-10-12T13:29:24;101614.97;;;16.72;64.34
53506;BME280;39388;50.936;6.848;2022-10-12T13:31:59;101604.41;;;16.83;64.20
53506;BME280;39388;50.936;6.848;2022-10-12T13:34:41;101606.00;;;16.92;63.99
53506;BME280;39388;50.936;6.848;2022-10-12T13:37:14;101607.75;;;16.91;63.96
53506;BME280;39388;50.936;6.848;2022-10-12T13:39:45;101606.00;;;16.92;63.72
53506;BME280;39388;50.936;6.848;2022-10-12T13:42:23;101595.59;;;16.90;63.51
53506;BME280;39388;50.936;6.848;2022-10-12T13:44:56;101590.28;;;16.98;63.74
53506;BME280;39388;50.936;6.848;2022-10-12T13:47:29;101580.66;;;17.02;63.58
53506;BME280;39388;50.936;6.848;2022-10-12T13:50:01;101581.47;;;17.04;63.59
53506;BME280;39388;50.936;6.848;2022-10-12T13:52:32;101565.00;;;17.02;63.44
53506;BME280;39388;50.936;6.848;2022-10-12T13:55:13;101577.06;;;17.07;63.21
53506;BME280;39388;50.936;6.848;2022-10-12T13:57:44;101570.97;;;17.07;63.21
53506;BME280;39388;50.936;6.848;2022-10-12T14:00:22;101564.09;;;17.04;63.21
53506;BME280;39388;50.936;6.848;2022-10-12T14:02:58;101565.94;;;16.99;63.38
53506;BME280;39388;50.936;6.848;2022-10-12T14:05:30;101532.47;;;16.76;63.45
53506;BME280;39388;50.936;6.848;2022-10-12T14:08:04;101557.56;;;16.80;63.80
53506;BME280;39388;50.936;6.848;2022-10-12T14:10:37;101559.53;;;16.67;63.99
53506;BME280;39388;50.936;6.848;2022-10-12T14:13:12;101568.31;;;16.61;64.49
53506;BME280;39388;50.936;6.848;2022-10-12T14:15:44;101559.78;;;16.51;64.78
53506;BME280;39388;50.936;6.848;2022-10-12T14:23:52;101540.00;;;16.40;64.81
53506;BME280;39388;50.936;6.848;2022-10-12T14:26:26;101552.06;;;16.47;64.78
53506;BME280;39388;50.936;6.848;2022-10-12T14:28:58;101543.53;;;16.37;64.75
53506;BME280;39388;50.936;6.848;2022-10-12T14:31:49;101553.84;;;16.42;64.89
53506;BME280;39388;50.936;6.848;2022-10-12T14:37:22;101551.34;;;16.37;65.04
53506;BME280;39388;50.936;6.848;2022-10-12T14:39:53;101531.47;;;16.30;65.11
53506;BME280;39388;50.936;6.848;2022-10-12T14:42:33;101535.72;;;16.37;65.18
53506;BME280;39388;50.936;6.848;2022-10-12T14:45:05;101537.41;;;16.41;64.89
53506;BME280;39388;50.936;6.848;2022-10-12T14:47:39;101536.44;;;16.47;65.00
53506;BME280;39388;50.936;6.848;2022-10-12T14:50:15;101534.59;;;16.52;65.18
53506;BME280;39388;50.936;6.848;2022-10-12T14:52:49;101538.03;;;16.54;65.06
53506;BME280;39388;50.936;6.848;2022-10-12T14:55:23;101537.03;;;16.63;64.93
53506;BME280;39388;50.936;6.848;2022-10-12T14:57:54;101536.19;;;16.62;64.82
53506;BME280;39388;50.936;6.848;2022-10-12T15:00:27;101535.22;;;16.66;65.05
53506;BME280;39388;50.936;6.848;2022-10-12T15:02:58;101526.53;;;16.67;64.90
53506;BME280;39388;50.936;6.848;2022-10-12T15:05:30;101522.19;;;16.66;64.97
53506;BME280;39388;50.936;6.848;2022-10-12T15:08:01;101523.97;;;16.64;64.96
53506;BME280;39388;50.936;6.848;2022-10-12T15:10:38;101519.78;;;16.57;65.22
53506;BME280;39388;50.936;6.848;2022-10-12T15:13:11;101523.25;;;16.56;64.88
53506;BME280;39388;50.936;6.848;2022-10-12T15:15:44;101527.59;;;16.57;65.34